Time;durP1;ratioP1;P1;durP2;ratioP2;P2;SDS_P1;SDS_P2;PMS_P1;PMS_P2;Temp;Humidity;BMP_temperature;BMP_pressure;BME280_temperature;BME280_humidity;BME280_pressure;Samples;Min_cycle;Max_cycle;Signal;HPM_P1;HPM_P2
2022/08/02 00:00:19;;;;;;;0.60;0.50;;;18.20;99.90;;;;;;5112156;27;20467;-85
2022/08/02 00:02:48;;;;;;;0.80;0.60;;;18.20;99.90;;;;;;5111591;28;20464;-85
2022/08/02 00:05:15;;;;;;;1.13;1.13;;;18.30;99.90;;;;;;5114176;28;20465;-85
2022/08/02 00:07:42;;;;;;;0.90;0.60;;;18.30;99.90;;;;;;5112851;27;20463;-85
2022/08/02 00:10:12;;;;;;;0.80;0.60;;;18.40;99.90;;;;;;5113744;27;21089;-85
2022/08/02 00:12:39;;;;;;;0.87;0.67;;;18.40;99.90;;;;;;5124099;27;20489;-85
2022/08/02 00:15:08;;;;;;;2.13;0.87;;;18.40;99.90;;;;;;5118628;27;20461;-85
2022/08/02 00:17:35;;;;;;;0.80;0.77;;;18.30;99.90;;;;;;5118098;27;20460;-85
2022/08/02 00:20:02;;;;;;;0.80;0.60;;;18.30;99.90;;;;;;5113047;27;20458;-85
2022/08/02 00:22:30;;;;;;;0.70;0.50;;;18.30;99.90;;;;;;5119228;27;20465;-85
2022/08/02 00:24:57;;;;;;;1.00;0.50;;;18.30;99.90;;;;;;5116118;27;20984;-85
2022/08/02 00:27:25;;;;;;;0.87;0.60;;;18.40;99.90;;;;;;5115219;27;20918;-84
2022/08/02 00:29:54;;;;;;;1.03;0.50;;;18.60;99.90;;;;;;5115419;27;20468;-84
2022/08/02 00:32:21;;;;;;;0.60;0.50;;;18.50;99.90;;;;;;5118134;27;20575;-85
2022/08/02 00:34:48;;;;;;;1.00;0.53;;;18.40;99.90;;;;;;5113015;27;20467;-85
2022/08/02 00:37:15;;;;;;;1.47;0.80;;;18.30;99.90;;;;;;5110199;27;20465;-85
2022/08/02 00:39:43;;;;;;;0.50;0.43;;;18.30;99.90;;;;;;5119638;27;20455;-84
2022/08/02 00:42:10;;;;;;;0.87;0.60;;;18.40;99.90;;;;;;5119888;27;20440;-84
2022/08/02 00:44:38;;;;;;;0.57;0.50;;;18.30;99.90;;;;;;5117240;27;20439;-84
2022/08/02 00:47:06;;;;;;;0.50;0.40;;;18.30;99.90;;;;;;5114140;27;20464;-84
2022/08/02 00:49:33;;;;;;;0.60;0.60;;;18.30;99.90;;;;;;5112468;27;20591;-84
2022/08/02 00:52:00;;;;;;;0.83;0.40;;;18.30;99.90;;;;;;5114602;27;20557;-84
2022/08/02 00:54:27;;;;;;;3.93;0.80;;;18.20;99.90;;;;;;5116252;27;20465;-84
2022/08/02 00:56:55;;;;;;;0.60;0.60;;;18.20;99.90;;;;;;5114186;27;20474;-84
2022/08/02 00:59:22;;;;;;;0.83;0.83;;;18.30;99.90;;;;;;5117435;27;20437;-84
2022/08/02 01:01:51;;;;;;;0.80;0.80;;;18.50;99.90;;;;;;5114917;27;21170;-84
2022/08/02 01:04:18;;;;;;;0.90;0.50;;;18.50;99.90;;;;;;5115000;27;20460;-84
2022/08/02 01:06:45;;;;;;;4.10;0.60;;;18.30;99.90;;;;;;5112633;27;20458;-85
2022/08/02 01:09:12;;;;;;;1.17;0.60;;;18.30;99.90;;;;;;5113803;27;20456;-84
2022/08/02 01:11:39;;;;;;;4.10;0.60;;;18.30;99.90;;;;;;5115634;27;20541;-84
2022/08/02 01:14:10;;;;;;;1.60;0.70;;;18.30;99.90;;;;;;5110819;27;20988;-84
2022/08/02 01:16:42;;;;;;;0.60;0.57;;;18.30;99.90;;;;;;5115134;27;20459;-84
2022/08/02 01:19:29;;;;;;;0.73;0.60;;;18.20;99.90;;;;;;5110143;27;21066;-84
2022/08/02 01:22:22;;;;;;;3.07;0.70;;;18.20;99.90;;;;;;5114741;27;20842;-85
2022/08/02 01:25:20;;;;;;;0.60;0.60;;;18.20;99.90;;;;;;5113340;27;20984;-84
2022/08/02 01:27:53;;;;;;;0.50;0.50;;;18.20;99.90;;;;;;5114364;27;20469;-84
2022/08/02 01:30:23;;;;;;;0.60;0.60;;;18.30;99.90;;;;;;5113960;27;20966;-84
2022/08/02 01:32:56;;;;;;;0.90;0.57;;;18.30;99.90;;;;;;5115562;27;21031;-84
2022/08/02 01:35:28;;;;;;;1.47;0.60;;;18.30;99.90;;;;;;5114971;27;20473;-84
2022/08/02 01:37:58;;;;;;;1.27;0.50;;;18.30;99.90;;;;;;5118601;27;20478;-84
2022/08/02 01:40:29;;;;;;;1.33;0.97;;;18.40;99.90;;;;;;5112277;27;20466;-84
2022/08/02 01:42:57;;;;;;;1.07;0.97;;;18.40;99.90;;;;;;5114813;27;20484;-84
2022/08/02 01:45:29;;;;;;;0.60;0.60;;;18.40;99.90;;;;;;5113183;27;20493;-84
2022/08/02 01:47:58;;;;;;;6.23;1.03;;;18.30;99.90;;;;;;5114698;27;20466;-84
2022/08/02 01:50:28;;;;;;;4.20;0.60;;;18.30;99.90;;;;;;5116752;27;20471;-84
2022/08/02 01:52:58;;;;;;;1.10;0.90;;;18.30;99.90;;;;;;5112733;27;21649;-84
2022/08/02 01:55:29;;;;;;;0.70;0.60;;;18.30;99.90;;;;;;5111731;27;20461;-84
2022/08/02 01:57:59;;;;;;;0.80;0.70;;;18.10;99.90;;;;;;5108639;27;21004;-84
2022/08/02 02:00:31;;;;;;;0.80;0.70;;;18.10;99.90;;;;;;5112169;27;20457;-84
2022/08/02 02:03:00;;;;;;;0.80;0.60;;;18.10;99.90;;;;;;5112806;27;20461;-84
2022/08/02 02:05:29;;;;;;;0.70;0.70;;;18.10;99.90;;;;;;5117331;27;20457;-84
2022/08/02 02:07:58;;;;;;;5.83;1.00;;;18.00;99.90;;;;;;5114330;27;20461;-84
2022/08/02 02:10:29;;;;;;;0.87;0.80;;;18.00;99.90;;;;;;5111145;27;21061;-84
2022/08/02 02:12:59;;;;;;;0.60;0.60;;;17.90;99.90;;;;;;5108807;27;20519;-84
2022/08/02 02:15:29;;;;;;;3.50;1.17;;;18.00;99.90;;;;;;5113677;27;20793;-84
2022/08/02 02:17:58;;;;;;;1.17;0.80;;;18.00;99.90;;;;;;5113473;27;20462;-84
2022/08/02 02:20:25;;;;;;;1.37;0.80;;;18.10;99.90;;;;;;5114740;27;20454;-84
2022/08/02 02:22:52;;;;;;;1.07;0.80;;;18.10;99.90;;;;;;5112884;27;20456;-84
2022/08/02 02:25:21;;;;;;;2.30;0.90;;;18.20;99.90;;;;;;5110803;27;20495;-84
2022/08/02 02:27:54;;;;;;;1.13;0.77;;;18.20;99.90;;;;;;5113835;27;20461;-84
2022/08/02 02:30:23;;;;;;;0.70;0.63;;;18.20;99.90;;;;;;5107206;27;20460;-84
2022/08/02 02:32:55;;;;;;;1.37;1.13;;;18.30;99.90;;;;;;5114946;27;20541;-84
2022/08/02 02:35:23;;;;;;;1.87;0.90;;;18.30;99.90;;;;;;5110768;27;20472;-84
2022/08/02 02:37:52;;;;;;;1.10;1.00;;;18.40;99.90;;;;;;5110879;27;20963;-84
2022/08/02 02:40:20;;;;;;;1.80;1.27;;;18.50;99.90;;;;;;5112987;27;20465;-84
2022/08/02 02:42:48;;;;;;;1.23;0.90;;;18.40;99.90;;;;;;5113750;27;20471;-84
2022/08/02 02:45:17;;;;;;;2.60;0.80;;;18.50;99.90;;;;;;5111518;27;20568;-84
2022/08/02 02:47:44;;;;;;;2.67;0.73;;;18.70;99.90;;;;;;5115709;27;20582;-85
2022/08/02 02:50:13;;;;;;;1.57;1.10;;;18.60;99.90;;;;;;5112148;27;20456;-84
2022/08/02 02:52:41;;;;;;;2.13;0.60;;;18.40;99.90;;;;;;5111185;27;20489;-82
2022/08/02 02:55:09;;;;;;;1.10;0.70;;;18.50;99.90;;;;;;5114432;27;20458;-83
2022/08/02 02:57:37;;;;;;;1.47;0.90;;;18.40;99.90;;;;;;5108334;27;20472;-83
2022/08/02 03:00:07;;;;;;;0.90;0.90;;;18.40;99.90;;;;;;5109731;27;20454;-82
2022/08/02 03:02:36;;;;;;;0.90;0.90;;;18.50;99.90;;;;;;5115333;27;20461;-82
2022/08/02 03:05:03;;;;;;;0.80;0.77;;;18.50;99.90;;;;;;5114648;27;20454;-83
2022/08/02 03:07:33;;;;;;;0.60;0.60;;;18.40;99.90;;;;;;5111708;27;20467;-83
2022/08/02 03:10:00;;;;;;;2.93;1.10;;;18.40;99.90;;;;;;5113527;27;20526;-82
2022/08/02 03:12:28;;;;;;;0.70;0.70;;;18.40;99.90;;;;;;5112639;27;20517;-84
2022/08/02 03:14:57;;;;;;;0.70;0.63;;;18.20;99.90;;;;;;5111047;27;20920;-84
2022/08/02 03:17:24;;;;;;;0.77;0.60;;;18.30;99.90;;;;;;5110733;27;20458;-85
2022/08/02 03:19:51;;;;;;;1.20;0.80;;;18.30;99.90;;;;;;5109595;27;20476;-84
2022/08/02 03:22:18;;;;;;;0.80;0.80;;;18.20;99.90;;;;;;5110475;27;20849;-85
2022/08/02 03:24:47;;;;;;;1.13;0.80;;;18.20;99.90;;;;;;5110718;27;20492;-83
2022/08/02 03:27:14;;;;;;;0.90;0.70;;;18.10;99.90;;;;;;5109454;27;20517;-83
2022/08/02 03:29:41;;;;;;;1.17;1.07;;;18.00;99.90;;;;;;5115541;27;20512;-82
2022/08/02 03:32:08;;;;;;;0.63;0.60;;;18.10;99.90;;;;;;5111099;27;20971;-82
2022/08/02 03:34:35;;;;;;;1.20;0.80;;;18.10;99.90;;;;;;5110834;27;20470;-82
2022/08/02 03:37:03;;;;;;;0.80;0.80;;;18.10;99.90;;;;;;5110122;27;20463;-82
2022/08/02 03:39:32;;;;;;;2.17;0.90;;;18.20;99.90;;;;;;5112397;27;20549;-83
2022/08/02 03:42:01;;;;;;;0.63;0.63;;;18.30;99.90;;;;;;5112151;27;20451;-83
2022/08/02 03:44:28;;;;;;;1.43;0.90;;;18.30;99.90;;;;;;5113762;27;20472;-83
2022/08/02 03:46:56;;;;;;;1.07;0.80;;;18.20;99.90;;;;;;5112184;27;20468;-83
2022/08/02 03:49:24;;;;;;;1.00;0.80;;;18.30;99.90;;;;;;5113688;27;20460;-82
2022/08/02 03:51:51;;;;;;;0.70;0.70;;;18.30;99.90;;;;;;5115718;27;21116;-83
2022/08/02 03:54:19;;;;;;;2.00;0.70;;;18.30;99.90;;;;;;5113113;27;20462;-83
2022/08/02 03:56:46;;;;;;;0.60;0.60;;;18.40;99.90;;;;;;5112948;27;20473;-82
2022/08/02 03:59:15;;;;;;;0.90;0.67;;;18.40;99.90;;;;;;5111759;27;20469;-83
2022/08/02 04:01:42;;;;;;;0.60;0.60;;;18.40;99.90;;;;;;5113686;28;20468;-83
2022/08/02 04:04:09;;;;;;;0.70;0.60;;;18.40;99.90;;;;;;5110870;28;20465;-82
2022/08/02 04:06:37;;;;;;;0.50;0.50;;;18.40;99.90;;;;;;5116656;28;20827;-82
2022/08/02 04:09:04;;;;;;;1.37;0.70;;;18.40;99.90;;;;;;5109142;28;20465;-83
2022/08/02 04:11:31;;;;;;;1.07;0.97;;;18.50;99.90;;;;;;5120420;28;20451;-83
2022/08/02 04:14:01;;;;;;;0.60;0.50;;;18.50;99.90;;;;;;5122355;28;20486;-83
2022/08/02 04:16:38;;;;;;;0.70;0.53;;;18.50;99.90;;;;;;5121740;28;20470;-83
2022/08/02 04:19:08;;;;;;;0.80;0.73;;;18.50;99.90;;;;;;5114035;28;20559;-83
2022/08/02 04:21:38;;;;;;;0.80;0.70;;;18.50;99.90;;;;;;5109203;28;20505;-83
2022/08/02 04:24:08;;;;;;;0.80;0.60;;;18.70;99.90;;;;;;5108715;28;21188;-83
2022/08/02 04:26:37;;;;;;;0.90;0.80;;;18.60;99.90;;;;;;5115178;28;20462;-83
2022/08/02 04:29:05;;;;;;;1.00;0.90;;;18.60;99.90;;;;;;5112315;28;20547;-83
2022/08/02 04:31:34;;;;;;;2.00;0.67;;;18.60;99.90;;;;;;5113475;28;20463;-83
2022/08/02 04:34:02;;;;;;;0.80;0.80;;;18.70;99.90;;;;;;5112613;28;20482;-83
2022/08/02 04:36:30;;;;;;;1.10;0.90;;;18.70;99.90;;;;;;5113146;28;21096;-83
2022/08/02 04:38:57;;;;;;;0.60;0.53;;;18.70;99.90;;;;;;5113241;28;20475;-83
2022/08/02 04:41:36;;;;;;;0.50;0.50;;;18.60;99.90;;;;;;5110168;28;20461;-83
2022/08/02 04:44:03;;;;;;;0.60;0.50;;;18.60;99.90;;;;;;5109951;28;20466;-83
2022/08/02 04:46:31;;;;;;;0.60;0.60;;;18.80;99.90;;;;;;5113598;28;20974;-83
2022/08/02 04:49:00;;;;;;;0.60;0.60;;;18.80;99.90;;;;;;5114549;28;20459;-83
2022/08/02 04:51:27;;;;;;;1.10;0.83;;;18.70;99.90;;;;;;5112240;28;20801;-83
2022/08/02 04:53:54;;;;;;;1.17;0.87;;;18.50;99.90;;;;;;5113154;27;20975;-83
2022/08/02 04:56:21;;;;;;;1.10;0.80;;;18.40;99.90;;;;;;5112280;27;20464;-82
2022/08/02 04:58:48;;;;;;;0.73;0.73;;;18.30;99.90;;;;;;5118165;27;20487;-82
2022/08/02 05:01:15;;;;;;;0.67;0.60;;;18.30;99.90;;;;;;5112855;27;20525;-82
2022/08/02 05:03:42;;;;;;;0.97;0.60;;;18.30;99.90;;;;;;5117022;27;20972;-82
2022/08/02 05:06:10;;;;;;;0.60;0.50;;;18.40;99.90;;;;;;5110997;27;20470;-82
2022/08/02 05:08:37;;;;;;;2.30;0.60;;;18.40;99.90;;;;;;5113959;27;20459;-82
2022/08/02 05:11:04;;;;;;;0.70;0.70;;;18.40;99.90;;;;;;5114898;27;20454;-82
2022/08/02 05:13:31;;;;;;;0.83;0.83;;;18.60;99.90;;;;;;5109937;27;20493;-82
2022/08/02 05:16:01;;;;;;;0.60;0.50;;;18.90;99.90;;;;;;5115034;27;20456;-83
2022/08/02 05:18:28;;;;;;;1.00;0.90;;;19.00;99.90;;;;;;5110644;27;20547;-83
2022/08/02 05:20:55;;;;;;;0.73;0.73;;;19.20;99.90;;;;;;5114792;27;20499;-83
2022/08/02 05:23:23;;;;;;;0.70;0.63;;;19.10;99.90;;;;;;5116577;27;20480;-83
2022/08/02 05:25:50;;;;;;;1.80;0.70;;;19.10;99.90;;;;;;5110374;27;20519;-83
2022/08/02 05:28:18;;;;;;;0.77;0.77;;;19.00;99.90;;;;;;5118756;27;20484;-83
2022/08/02 05:30:45;;;;;;;0.60;0.57;;;18.90;99.90;;;;;;5112669;27;20457;-82
2022/08/02 05:33:12;;;;;;;0.50;0.50;;;18.90;99.90;;;;;;5105339;27;21174;-84
2022/08/02 05:35:39;;;;;;;0.70;0.60;;;18.80;99.90;;;;;;5114708;27;20460;-83
2022/08/02 05:38:06;;;;;;;0.60;0.60;;;18.80;99.90;;;;;;5108618;27;20534;-84
2022/08/02 05:40:34;;;;;;;0.53;0.50;;;18.80;99.90;;;;;;5110907;27;20984;-84
2022/08/02 05:43:02;;;;;;;1.00;0.70;;;18.70;99.90;;;;;;5107050;27;20977;-84
2022/08/02 05:45:34;;;;;;;6.63;0.63;;;18.70;99.90;;;;;;5109043;27;20460;-83
2022/08/02 05:48:01;;;;;;;1.37;1.17;;;18.60;99.90;;;;;;5113473;27;20854;-84
2022/08/02 05:50:28;;;;;;;2.20;1.27;;;18.50;99.90;;;;;;5107043;27;20475;-84
2022/08/02 05:53:03;;;;;;;0.70;0.70;;;18.50;99.90;;;;;;5112076;27;20494;-85
2022/08/02 05:55:39;;;;;;;0.80;0.80;;;18.50;99.90;;;;;;5109685;27;20499;-85
2022/08/02 05:58:13;;;;;;;0.70;0.70;;;18.40;99.90;;;;;;5108017;27;20460;-84
2022/08/02 06:00:41;;;;;;;2.63;0.70;;;18.50;99.90;;;;;;5105426;27;20552;-84
2022/08/02 06:03:24;;;;;;;0.80;0.60;;;18.60;99.90;;;;;;5111101;27;20454;-84
2022/08/02 06:05:57;;;;;;;0.80;0.80;;;18.80;99.90;;;;;;5122954;27;21084;-84
2022/08/02 06:08:31;;;;;;;0.80;0.77;;;18.90;99.90;;;;;;5107716;27;20468;-84
2022/08/02 06:11:01;;;;;;;0.90;0.60;;;19.00;99.90;;;;;;5108264;27;20743;-84
2022/08/02 06:13:29;;;;;;;1.43;0.63;;;19.10;99.90;;;;;;5107503;27;20500;-85
2022/08/02 06:15:58;;;;;;;0.60;0.50;;;19.00;99.90;;;;;;5114649;27;20539;-85
2022/08/02 06:18:27;;;;;;;1.50;0.83;;;18.90;99.90;;;;;;5113335;27;20554;-84
2022/08/02 06:20:58;;;;;;;1.67;1.03;;;18.90;99.90;;;;;;5114076;27;20507;-84
2022/08/02 06:23:26;;;;;;;0.80;0.80;;;19.00;99.90;;;;;;5108163;27;21154;-84
2022/08/02 06:25:53;;;;;;;1.30;1.20;;;18.90;99.90;;;;;;5108867;27;20506;-84
2022/08/02 06:28:23;;;;;;;9.10;1.10;;;18.90;99.90;;;;;;5107519;27;20465;-84
2022/08/02 06:30:50;;;;;;;1.63;1.00;;;18.90;99.90;;;;;;5104643;27;20471;-84
2022/08/02 06:33:18;;;;;;;1.13;1.03;;;19.00;99.90;;;;;;5105366;27;20490;-84
2022/08/02 06:35:50;;;;;;;0.93;0.83;;;19.20;99.90;;;;;;5108031;27;20787;-84
2022/08/02 06:38:21;;;;;;;0.73;0.63;;;19.40;99.90;;;;;;5107206;27;20483;-84
2022/08/02 06:40:55;;;;;;;0.70;0.60;;;19.50;99.90;;;;;;5111066;27;21111;-84
2022/08/02 06:43:30;;;;;;;1.17;0.73;;;19.50;99.90;;;;;;5106917;27;20457;-84
2022/08/02 06:45:57;;;;;;;1.30;0.97;;;19.60;99.90;;;;;;5107604;27;20468;-84
2022/08/02 06:48:24;;;;;;;1.53;1.10;;;19.80;99.90;;;;;;5104078;27;20593;-84
2022/08/02 06:50:51;;;;;;;1.47;1.17;;;20.10;99.90;;;;;;5112417;27;20465;-84
2022/08/02 06:53:18;;;;;;;1.03;0.70;;;20.20;99.90;;;;;;5110542;27;20552;-84
2022/08/02 06:55:45;;;;;;;1.90;0.90;;;20.60;99.90;;;;;;5114894;27;20452;-81
2022/08/02 06:58:13;;;;;;;1.30;1.20;;;20.70;99.90;;;;;;5115983;27;20516;-82
2022/08/02 07:00:42;;;;;;;1.40;1.30;;;20.90;99.90;;;;;;5120083;27;20522;-82
2022/08/02 07:03:09;;;;;;;0.90;0.90;;;21.20;99.90;;;;;;5106203;27;20450;-82
2022/08/02 07:05:36;;;;;;;1.40;0.90;;;21.50;99.90;;;;;;5108287;27;20528;-83
2022/08/02 07:08:04;;;;;;;0.87;0.83;;;21.80;99.90;;;;;;5111648;27;20731;-83
2022/08/02 07:10:31;;;;;;;1.10;0.90;;;21.90;99.90;;;;;;5114677;27;20441;-83
2022/08/02 07:12:58;;;;;;;0.77;0.77;;;22.10;99.90;;;;;;5113026;27;20469;-82
2022/08/02 07:15:25;;;;;;;1.00;0.70;;;22.30;99.90;;;;;;5116932;27;20943;-83
2022/08/02 07:17:53;;;;;;;0.93;0.60;;;22.50;99.90;;;;;;5115417;27;20450;-83
2022/08/02 07:20:20;;;;;;;2.00;0.93;;;22.50;99.90;;;;;;5112172;27;20457;-83
2022/08/02 07:22:47;;;;;;;0.80;0.80;;;22.20;99.90;;;;;;5115345;27;20480;-83
2022/08/02 07:25:14;;;;;;;0.70;0.70;;;22.20;99.90;;;;;;5112398;27;20477;-83
2022/08/02 07:27:41;;;;;;;1.03;0.90;;;22.20;99.90;;;;;;5115057;27;20457;-84
2022/08/02 07:30:10;;;;;;;1.17;1.07;;;21.90;99.90;;;;;;5117640;27;20448;-83
2022/08/02 07:32:37;;;;;;;0.93;0.70;;;21.80;99.90;;;;;;5113039;27;20472;-82
2022/08/02 07:35:07;;;;;;;1.47;1.37;;;21.60;99.90;;;;;;5116143;27;20556;-83
2022/08/02 07:37:35;;;;;;;1.20;1.10;;;21.60;99.90;;;;;;5111242;27;21105;-83
2022/08/02 07:40:02;;;;;;;1.90;0.83;;;21.50;99.90;;;;;;5112903;27;20458;-83
2022/08/02 07:42:29;;;;;;;1.07;0.97;;;21.30;99.90;;;;;;5114725;27;21319;-83
2022/08/02 07:44:56;;;;;;;2.47;0.80;;;20.90;99.90;;;;;;5115415;27;20449;-83
2022/08/02 07:47:23;;;;;;;1.07;0.97;;;20.80;99.90;;;;;;5114233;27;20444;-84
2022/08/02 07:49:50;;;;;;;2.30;1.47;;;20.70;99.90;;;;;;5114981;27;20457;-83
2022/08/02 07:52:19;;;;;;;1.33;1.23;;;20.50;99.90;;;;;;5109921;27;20458;-83
2022/08/02 07:54:46;;;;;;;1.17;0.80;;;20.50;99.90;;;;;;5105765;28;21009;-82
2022/08/02 07:57:14;;;;;;;2.50;0.90;;;20.60;99.90;;;;;;5107905;27;21025;-84
2022/08/02 07:59:41;;;;;;;1.47;1.20;;;20.70;99.90;;;;;;5108201;28;20458;-83
2022/08/02 08:02:08;;;;;;;2.13;1.30;;;20.60;99.90;;;;;;5115219;27;20483;-83
2022/08/02 08:04:35;;;;;;;1.33;1.13;;;20.80;99.90;;;;;;5103916;28;21025;-83
2022/08/02 08:07:04;;;;;;;0.80;0.80;;;20.70;99.90;;;;;;5105504;28;20845;-83
2022/08/02 08:09:33;;;;;;;1.10;1.00;;;20.90;99.90;;;;;;5104014;28;20570;-83
2022/08/02 08:12:00;;;;;;;1.77;1.53;;;20.90;99.90;;;;;;5104993;28;20448;-83
2022/08/02 08:14:27;;;;;;;1.20;1.10;;;21.20;99.90;;;;;;5111710;28;20498;-83
2022/08/02 08:16:54;;;;;;;2.93;1.00;;;21.60;99.90;;;;;;5112490;28;20936;-83
2022/08/02 08:19:21;;;;;;;0.90;0.77;;;21.70;99.90;;;;;;5123705;28;21028;-83
2022/08/02 08:21:48;;;;;;;0.83;0.70;;;22.00;99.90;;;;;;5125019;28;20961;-83
2022/08/02 08:24:15;;;;;;;0.90;0.70;;;21.90;99.90;;;;;;5103664;28;20470;-83
2022/08/02 08:26:43;;;;;;;0.90;0.67;;;22.00;99.90;;;;;;5105345;28;20445;-83
2022/08/02 08:29:11;;;;;;;0.50;0.50;;;22.30;99.90;;;;;;5114067;27;20510;-84
2022/08/02 08:31:38;;;;;;;0.53;0.50;;;22.60;99.90;;;;;;5119550;27;20441;-83
2022/08/02 08:34:05;;;;;;;0.87;0.50;;;22.80;99.90;;;;;;5117270;27;20492;-83
2022/08/02 08:36:32;;;;;;;0.50;0.50;;;22.70;99.90;;;;;;5117364;27;20453;-83
2022/08/02 08:38:59;;;;;;;0.80;0.80;;;22.60;99.90;;;;;;5118358;27;20483;-84
2022/08/02 08:41:26;;;;;;;0.60;0.50;;;22.60;99.90;;;;;;5112913;27;20456;-83
2022/08/02 08:43:55;;;;;;;0.90;0.60;;;22.30;99.90;;;;;;5116599;27;20910;-83
2022/08/02 08:46:26;;;;;;;0.80;0.70;;;22.30;99.90;;;;;;5114313;27;20441;-83
2022/08/02 08:48:58;;;;;;;0.50;0.40;;;22.70;99.90;;;;;;5111108;27;20450;-83
2022/08/02 08:51:31;;;;;;;0.50;0.50;;;22.70;99.90;;;;;;5120163;27;20778;-84
2022/08/02 08:54:02;;;;;;;0.80;0.60;;;22.90;99.90;;;;;;5118714;27;20520;-84
2022/08/02 08:56:33;;;;;;;0.60;0.50;;;22.90;99.90;;;;;;5117737;27;20527;-84
2022/08/02 08:59:03;;;;;;;1.00;0.60;;;23.20;99.90;;;;;;5117108;27;20438;-84
2022/08/02 09:01:30;;;;;;;0.83;0.70;;;23.00;99.90;;;;;;5114853;27;21372;-83
2022/08/02 09:03:58;;;;;;;0.50;0.50;;;23.10;99.90;;;;;;5116572;27;20448;-83
2022/08/02 09:06:25;;;;;;;0.70;0.60;;;23.10;99.90;;;;;;5117707;27;20445;-83
2022/08/02 09:08:52;;;;;;;0.60;0.57;;;23.30;99.90;;;;;;5108018;28;20926;-84
2022/08/02 09:11:22;;;;;;;0.80;0.80;;;23.40;99.90;;;;;;5121517;27;20533;-84
2022/08/02 09:13:51;;;;;;;0.60;0.50;;;23.50;99.90;;;;;;5108803;28;20485;-84
2022/08/02 09:16:30;;;;;;;0.60;0.50;;;23.70;99.90;;;;;;5110926;27;20461;-84
2022/08/02 09:18:58;;;;;;;0.70;0.70;;;23.90;99.90;;;;;;5126964;27;20452;-84
2022/08/02 09:21:34;;;;;;;0.83;0.60;;;24.00;99.90;;;;;;5111056;27;20562;-83
2022/08/02 09:24:02;;;;;;;0.63;0.50;;;23.90;99.70;;;;;;5107054;28;20510;-84
2022/08/02 09:26:29;;;;;;;0.60;0.47;;;23.90;98.80;;;;;;5106798;28;20462;-84
2022/08/02 09:29:01;;;;;;;0.83;0.60;;;24.20;98.10;;;;;;5107855;28;20476;-84
2022/08/02 09:31:29;;;;;;;0.73;0.60;;;24.50;98.30;;;;;;5112770;27;20489;-84
2022/08/02 09:33:59;;;;;;;0.80;0.63;;;24.50;98.50;;;;;;5108015;28;20975;-83
2022/08/02 09:36:27;;;;;;;0.70;0.60;;;24.70;99.60;;;;;;5110350;27;20449;-83
2022/08/02 09:38:57;;;;;;;0.77;0.77;;;24.70;97.60;;;;;;5118595;27;20446;-84
2022/08/02 09:41:25;;;;;;;0.70;0.60;;;25.10;98.80;;;;;;5113750;27;21145;-84
2022/08/02 09:43:53;;;;;;;0.60;0.50;;;25.80;97.60;;;;;;5112466;27;20446;-83
2022/08/02 09:46:21;;;;;;;0.50;0.50;;;25.20;96.00;;;;;;5105391;28;20974;-84
2022/08/02 09:48:51;;;;;;;0.70;0.60;;;25.30;96.90;;;;;;5107007;28;20974;-83
2022/08/02 09:51:20;;;;;;;1.10;0.60;;;25.70;98.40;;;;;;5107999;27;20471;-84
2022/08/02 09:53:49;;;;;;;0.93;0.60;;;25.60;98.30;;;;;;5121543;27;20521;-84
2022/08/02 09:56:18;;;;;;;0.50;0.50;;;25.20;99.60;;;;;;5106046;27;20457;-83
2022/08/02 09:58:45;;;;;;;3.40;0.60;;;25.30;99.40;;;;;;5118916;27;20457;-84
2022/08/02 10:01:12;;;;;;;1.53;1.17;;;25.20;98.70;;;;;;5106478;27;21012;-84
2022/08/02 10:03:55;;;;;;;0.50;0.50;;;25.60;98.30;;;;;;5106267;28;20845;-84
2022/08/02 10:06:23;;;;;;;0.60;0.50;;;25.70;97.90;;;;;;5124243;27;20505;-84
2022/08/02 10:08:52;;;;;;;0.87;0.77;;;25.90;96.20;;;;;;5124813;27;20476;-83
2022/08/02 10:11:20;;;;;;;0.80;0.70;;;26.30;95.80;;;;;;5117852;27;20492;-84
2022/08/02 10:13:47;;;;;;;1.47;0.80;;;25.90;97.60;;;;;;5107128;28;20529;-83
2022/08/02 10:16:16;;;;;;;0.60;0.60;;;26.60;98.70;;;;;;5113811;27;20992;-83
2022/08/02 10:18:44;;;;;;;0.70;0.70;;;26.80;97.00;;;;;;5114628;27;20941;-84
2022/08/02 10:21:15;;;;;;;0.70;0.60;;;26.70;97.20;;;;;;5107132;27;20474;-84
2022/08/02 10:23:45;;;;;;;0.87;0.70;;;27.00;95.60;;;;;;5110459;28;20483;-84
2022/08/02 10:26:20;;;;;;;0.90;0.70;;;26.70;99.10;;;;;;5106778;28;20531;-84
2022/08/02 10:28:52;;;;;;;0.70;0.50;;;26.60;96.80;;;;;;5108718;27;20849;-86
2022/08/02 10:31:24;;;;;;;0.60;0.50;;;26.70;96.10;;;;;;5107036;27;20533;-85
2022/08/02 10:33:52;;;;;;;0.77;0.70;;;27.10;96.90;;;;;;5106715;28;20458;-85
2022/08/02 10:36:25;;;;;;;1.00;0.70;;;26.90;96.10;;;;;;5105867;27;20522;-84
2022/08/02 10:38:57;;;;;;;1.97;0.50;;;27.00;96.00;;;;;;5110027;27;20462;-84
2022/08/02 10:41:41;;;;;;;2.47;0.90;;;27.30;94.90;;;;;;5110317;27;20534;-84
2022/08/02 10:44:08;;;;;;;1.10;0.90;;;27.80;93.90;;;;;;5109035;27;20450;-84
2022/08/02 10:46:36;;;;;;;1.00;0.90;;;27.70;92.70;;;;;;5114444;27;20518;-85
2022/08/02 10:49:11;;;;;;;1.03;0.70;;;28.10;92.70;;;;;;5113828;27;20464;-85
2022/08/02 10:52:07;;;;;;;0.60;0.57;;;27.90;93.90;;;;;;5107031;27;20548;-85
2022/08/02 10:54:36;;;;;;;0.73;0.67;;;27.60;93.50;;;;;;5108355;27;20530;-85
2022/08/02 10:57:14;;;;;;;0.70;0.63;;;28.00;91.90;;;;;;5110681;27;20477;-85
2022/08/02 10:59:42;;;;;;;0.67;0.50;;;27.90;91.30;;;;;;5113988;27;20863;-85
2022/08/02 11:02:09;;;;;;;0.70;0.70;;;27.60;92.50;;;;;;5107112;27;20465;-84
2022/08/02 11:05:10;;;;;;;0.70;0.60;;;28.20;90.90;;;;;;5107459;27;20472;-86
2022/08/02 11:07:40;;;;;;;0.60;0.60;;;28.30;88.40;;;;;;5107485;27;20453;-85
2022/08/02 11:10:34;;;;;;;0.60;0.60;;;28.40;87.50;;;;;;5110269;27;20445;-85
2022/08/02 11:13:10;;;;;;;0.90;0.60;;;28.20;89.20;;;;;;5112156;27;20465;-85
2022/08/02 11:15:52;;;;;;;0.83;0.70;;;28.60;87.80;;;;;;5109791;27;20479;-86
2022/08/02 11:18:19;;;;;;;0.70;0.60;;;29.00;86.20;;;;;;5107829;27;20510;-86
2022/08/02 11:20:46;;;;;;;0.77;0.53;;;29.10;83.70;;;;;;5107877;27;21033;-85
2022/08/02 11:23:37;;;;;;;0.73;0.70;;;28.70;85.30;;;;;;5108481;27;20843;-85
2022/08/02 11:26:43;;;;;;;0.50;0.50;;;28.40;86.70;;;;;;5105872;27;20965;-86
2022/08/02 11:29:12;;;;;;;0.60;0.57;;;28.30;85.70;;;;;;5106976;27;20485;-86
2022/08/02 11:31:41;;;;;;;1.00;0.63;;;28.20;86.70;;;;;;5113509;27;20494;-85
2022/08/02 11:34:10;;;;;;;0.60;0.60;;;28.70;84.10;;;;;;5111352;28;20479;-85
2022/08/02 11:36:45;;;;;;;1.73;0.50;;;28.60;82.90;;;;;;5124966;27;20441;-84
2022/08/02 11:39:14;;;;;;;0.57;0.50;;;29.00;83.20;;;;;;5129319;28;20433;-86
2022/08/02 11:41:42;;;;;;;0.70;0.60;;;29.80;86.20;;;;;;5118747;27;20466;-85
2022/08/02 11:44:09;;;;;;;0.80;0.53;;;29.80;81.50;;;;;;5111351;27;20458;-86
2022/08/02 11:46:37;;;;;;;1.47;0.60;;;29.40;81.60;;;;;;5112766;27;20474;-86
2022/08/02 11:49:18;;;;;;;0.50;0.50;;;28.80;85.70;;;;;;5109721;27;20461;-85
2022/08/02 11:51:52;;;;;;;0.70;0.60;;;28.70;87.10;;;;;;5106327;28;20954;-86
2022/08/02 11:54:29;;;;;;;0.60;0.50;;;28.40;85.20;;;;;;5113174;27;20465;-85
2022/08/02 11:57:08;;;;;;;0.60;0.50;;;28.00;88.00;;;;;;5111386;27;20537;-86
2022/08/02 11:59:38;;;;;;;1.20;0.60;;;28.40;88.20;;;;;;5110625;27;20465;-86
2022/08/02 12:02:06;;;;;;;0.60;0.50;;;28.60;84.00;;;;;;5113317;27;20537;-86
2022/08/02 12:04:34;;;;;;;0.80;0.50;;;28.60;85.90;;;;;;5112433;28;20461;-86
2022/08/02 12:07:02;;;;;;;0.60;0.53;;;28.20;83.90;;;;;;5109885;28;20469;-86
2022/08/02 12:09:34;;;;;;;0.60;0.50;;;28.30;82.90;;;;;;5107329;28;20453;-86
2022/08/02 12:12:03;;;;;;;0.60;0.57;;;28.60;81.00;;;;;;5112894;28;20458;-85
2022/08/02 12:14:31;;;;;;;0.80;0.50;;;28.30;84.30;;;;;;5107288;28;20461;-86
2022/08/02 12:19:44;;;;;;;0.50;0.40;;;28.10;83.30;;;;;;5110223;28;21216;-86
2022/08/02 12:22:17;;;;;;;0.40;0.37;;;27.90;79.50;;;;;;5112677;28;20457;-86
2022/08/02 12:24:47;;;;;;;0.50;0.40;;;27.80;80.80;;;;;;5108577;28;21231;-86
2022/08/02 12:27:35;;;;;;;0.50;0.40;;;27.50;80.70;;;;;;5108480;28;21128;-87
2022/08/02 12:30:06;;;;;;;0.50;0.40;;;27.90;81.00;;;;;;5111167;28;20457;-86
2022/08/02 12:32:33;;;;;;;0.50;0.40;;;27.90;78.60;;;;;;5104023;28;20468;-86
2022/08/02 12:35:06;;;;;;;0.60;0.50;;;28.20;78.10;;;;;;5108396;28;20580;-86
2022/08/02 12:37:33;;;;;;;0.60;0.60;;;27.90;79.00;;;;;;5108198;28;20542;-87
2022/08/02 12:40:18;;;;;;;0.50;0.43;;;28.00;77.20;;;;;;5111276;28;20456;-86
2022/08/02 12:42:49;;;;;;;0.83;0.50;;;28.40;80.80;;;;;;5109989;28;20512;-86
2022/08/02 12:45:16;;;;;;;0.53;0.53;;;28.50;77.00;;;;;;5110459;28;20476;-86
2022/08/02 12:47:47;;;;;;;0.60;0.57;;;28.70;78.70;;;;;;5101999;28;20466;-86
2022/08/02 12:50:17;;;;;;;0.50;0.40;;;28.90;73.80;;;;;;5103035;28;20454;-86
2022/08/02 12:52:44;;;;;;;1.03;0.50;;;29.30;74.90;;;;;;5115643;28;20472;-86
2022/08/02 12:55:30;;;;;;;1.00;0.80;;;29.10;73.40;;;;;;5124042;28;20481;-86
2022/08/02 12:57:59;;;;;;;0.50;0.50;;;28.80;75.80;;;;;;5124080;28;20452;-86
2022/08/02 13:00:29;;;;;;;1.20;0.40;;;28.70;74.60;;;;;;5106984;28;20488;-85
2022/08/02 13:02:58;;;;;;;0.50;0.40;;;28.20;75.80;;;;;;5104487;28;20503;-86